sensor_id;sensor_type;location;lat;lon;timestamp;pressure;altitude;pressure_sealevel;temperature;humidity
20930;BME280;21895;47.072;15.132;2024-03-22T00:02:10;97153.00;;;8.24;76.55
20930;BME280;21895;47.072;15.132;2024-03-22T00:04:39;97157.00;;;8.51;75.49
20930;BME280;21895;47.072;15.132;2024-03-22T00:07:06;97158.00;;;8.43;75.65
20930;BME280;21895;47.072;15.132;2024-03-22T00:09:32;97155.00;;;8.68;74.93
20930;BME280;21895;47.072;15.132;2024-03-22T00:11:59;97148.00;;;8.63;75.11
20930;BME280;21895;47.072;15.132;2024-03-22T00:14:26;97154.00;;;8.68;74.96
20930;BME280;21895;47.072;15.132;2024-03-22T00:16:53;97163.00;;;8.90;74.44
20930;BME280;21895;47.072;15.132;2024-03-22T00:19:19;97146.00;;;8.94;73.75
20930;BME280;21895;47.072;15.132;2024-03-22T00:21:46;97147.00;;;8.75;74.23
20930;BME280;21895;47.072;15.132;2024-03-22T00:24:12;97162.00;;;8.65;75.34
20930;BME280;21895;47.072;15.132;2024-03-22T00:26:39;97155.00;;;8.67;75.34
20930;BME280;21895;47.072;15.132;2024-03-22T00:29:05;97155.00;;;8.57;75.58
20930;BME280;21895;47.072;15.132;2024-03-22T00:31:32;97164.00;;;8.44;76.59
20930;BME280;21895;47.072;15.132;2024-03-22T00:33:58;97159.00;;;8.43;76.65
20930;BME280;21895;47.072;15.132;2024-03-22T00:36:25;97158.00;;;8.44;77.01
20930;BME280;21895;47.072;15.132;2024-03-22T00:38:51;97154.00;;;8.53;76.67
20930;BME280;21895;47.072;15.132;2024-03-22T00:41:18;97169.00;;;8.77;75.79
20930;BME280;21895;47.072;15.132;2024-03-22T00:43:44;97160.00;;;8.62;76.34
20930;BME280;21895;47.072;15.132;2024-03-22T00:46:11;97161.00;;;8.64;75.99
20930;BME280;21895;47.072;15.132;2024-03-22T00:48:37;97147.00;;;8.81;75.60
20930;BME280;21895;47.072;15.132;2024-03-22T00:51:04;97148.00;;;8.87;75.33
20930;BME280;21895;47.072;15.132;2024-03-22T00:53:31;97157.00;;;8.78;75.71
20930;BME280;21895;47.072;15.132;2024-03-22T00:55:57;97160.00;;;8.71;75.84
20930;BME280;21895;47.072;15.132;2024-03-22T00:58:28;97154.00;;;8.56;76.28
20930;BME280;21895;47.072;15.132;2024-03-22T01:00:55;97153.00;;;8.51;76.94
20930;BME280;21895;47.072;15.132;2024-03-22T01:03:24;97155.00;;;8.68;76.43
20930;BME280;21895;47.072;15.132;2024-03-22T01:05:51;97154.00;;;8.79;76.35
20930;BME280;21895;47.072;15.132;2024-03-22T01:08:17;97157.00;;;8.84;76.16
20930;BME280;21895;47.072;15.132;2024-03-22T01:10:44;97151.00;;;8.68;76.22
20930;BME280;21895;47.072;15.132;2024-03-22T01:13:10;97141.00;;;8.62;76.78
20930;BME280;21895;47.072;15.132;2024-03-22T01:15:37;97142.00;;;8.68;76.93
20930;BME280;21895;47.072;15.132;2024-03-22T01:18:04;97149.00;;;8.94;75.83
20930;BME280;21895;47.072;15.132;2024-03-22T01:20:32;97151.00;;;8.88;76.45
20930;BME280;21895;47.072;15.132;2024-03-22T01:23:00;97155.00;;;9.00;75.89
20930;BME280;21895;47.072;15.132;2024-03-22T01:25:30;97149.00;;;9.04;75.49
20930;BME280;21895;47.072;15.132;2024-03-22T01:27:57;97143.00;;;8.85;75.72
20930;BME280;21895;47.072;15.132;2024-03-22T01:30:24;97147.00;;;8.77;75.74
20930;BME280;21895;47.072;15.132;2024-03-22T01:32:55;97141.00;;;8.66;76.40
20930;BME280;21895;47.072;15.132;2024-03-22T01:35:22;97139.00;;;8.77;76.28
20930;BME280;21895;47.072;15.132;2024-03-22T01:37:48;97140.00;;;8.94;75.38
20930;BME280;21895;47.072;15.132;2024-03-22T01:40:15;97144.00;;;8.90;75.63
20930;BME280;21895;47.072;15.132;2024-03-22T01:42:42;97148.00;;;8.89;75.49
20930;BME280;21895;47.072;15.132;2024-03-22T01:45:08;97157.00;;;8.84;75.58
20930;BME280;21895;47.072;15.132;2024-03-22T01:47:35;97149.00;;;8.93;75.02
20930;BME280;21895;47.072;15.132;2024-03-22T01:50:02;97158.00;;;8.83;75.35
20930;BME280;21895;47.072;15.132;2024-03-22T01:52:29;97162.00;;;8.72;75.81
20930;BME280;21895;47.072;15.132;2024-03-22T01:54:55;97157.00;;;8.65;76.27
20930;BME280;21895;47.072;15.132;2024-03-22T01:57:23;97158.00;;;8.75;76.17
20930;BME280;21895;47.072;15.132;2024-03-22T01:59:51;97168.00;;;8.84;76.07
20930;BME280;21895;47.072;15.132;2024-03-22T02:02:20;97159.00;;;8.79;75.53
20930;BME280;21895;47.072;15.132;2024-03-22T02:04:50;97157.00;;;8.71;75.38
20930;BME280;21895;47.072;15.132;2024-03-22T02:07:17;97153.00;;;8.55;76.08
20930;BME280;21895;47.072;15.132;2024-03-22T02:09:43;97150.00;;;8.67;75.61
20930;BME280;21895;47.072;15.132;2024-03-22T02:12:11;97144.00;;;8.60;75.45
20930;BME280;21895;47.072;15.132;2024-03-22T02:14:37;97155.00;;;8.58;75.16
20930;BME280;21895;47.072;15.132;2024-03-22T02:17:07;97145.00;;;8.55;75.62
20930;BME280;21895;47.072;15.132;2024-03-22T02:19:34;97139.00;;;8.45;75.97
20930;BME280;21895;47.072;15.132;2024-03-22T02:22:01;97137.00;;;8.32;75.00
20930;BME280;21895;47.072;15.132;2024-03-22T02:24:27;97141.00;;;8.34;74.57
20930;BME280;21895;47.072;15.132;2024-03-22T02:26:54;97143.00;;;8.13;74.92
20930;BME280;21895;47.072;15.132;2024-03-22T02:29:20;97144.00;;;7.98;75.62
20930;BME280;21895;47.072;15.132;2024-03-22T02:31:47;97143.00;;;7.81;75.48
20930;BME280;21895;47.072;15.132;2024-03-22T02:34:13;97141.00;;;7.88;75.72
20930;BME280;21895;47.072;15.132;2024-03-22T02:36:40;97139.00;;;8.14;74.99
20930;BME280;21895;47.072;15.132;2024-03-22T02:39:06;97136.00;;;8.23;74.48
20930;BME280;21895;47.072;15.132;2024-03-22T02:41:33;97133.00;;;8.12;74.47
20930;BME280;21895;47.072;15.132;2024-03-22T02:43:59;97137.00;;;7.94;75.26
20930;BME280;21895;47.072;15.132;2024-03-22T02:46:26;97139.00;;;7.67;75.58
20930;BME280;21895;47.072;15.132;2024-03-22T02:48:53;97137.00;;;7.64;75.56
20930;BME280;21895;47.072;15.132;2024-03-22T02:51:19;97129.00;;;7.61;75.70
20930;BME280;21895;47.072;15.132;2024-03-22T02:53:46;97136.00;;;7.56;75.95
20930;BME280;21895;47.072;15.132;2024-03-22T02:56:12;97137.00;;;7.54;75.26
20930;BME280;21895;47.072;15.132;2024-03-22T02:58:40;97146.00;;;7.48;74.71
20930;BME280;21895;47.072;15.132;2024-03-22T03:01:06;97143.00;;;7.38;74.93
20930;BME280;21895;47.072;15.132;2024-03-22T03:03:33;97152.00;;;7.50;74.69
20930;BME280;21895;47.072;15.132;2024-03-22T03:05:59;97150.00;;;7.36;76.20
20930;BME280;21895;47.072;15.132;2024-03-22T03:08:26;97144.00;;;7.40;76.06
20930;BME280;21895;47.072;15.132;2024-03-22T03:10:53;97142.00;;;7.36;75.36
20930;BME280;21895;47.072;15.132;2024-03-22T03:13:19;97147.00;;;7.27;74.80
20930;BME280;21895;47.072;15.132;2024-03-22T03:15:46;97146.00;;;7.00;75.05
20930;BME280;21895;47.072;15.132;2024-03-22T03:18:12;97139.00;;;6.83;75.83
20930;BME280;21895;47.072;15.132;2024-03-22T03:20:39;97132.00;;;6.90;76.08
20930;BME280;21895;47.072;15.132;2024-03-22T03:23:06;97143.00;;;6.84;75.17
20930;BME280;21895;47.072;15.132;2024-03-22T03:25:32;97135.00;;;6.62;74.73
20930;BME280;21895;47.072;15.132;2024-03-22T03:27:59;97136.00;;;6.53;75.64
20930;BME280;21895;47.072;15.132;2024-03-22T03:30:25;97138.00;;;6.47;75.42
20930;BME280;21895;47.072;15.132;2024-03-22T03:32:52;97136.00;;;6.33;75.71
20930;BME280;21895;47.072;15.132;2024-03-22T03:35:18;97144.00;;;6.18;76.19
20930;BME280;21895;47.072;15.132;2024-03-22T03:37:45;97141.00;;;6.21;77.30
20930;BME280;21895;47.072;15.132;2024-03-22T03:40:12;97139.00;;;6.27;76.05
20930;BME280;21895;47.072;15.132;2024-03-22T03:42:39;97144.00;;;6.05;76.20
20930;BME280;21895;47.072;15.132;2024-03-22T03:45:06;97144.00;;;5.97;76.91
20930;BME280;21895;47.072;15.132;2024-03-22T03:47:33;97146.00;;;6.03;77.71
20930;BME280;21895;47.072;15.132;2024-03-22T03:50:00;97136.00;;;6.23;78.15
20930;BME280;21895;47.072;15.132;2024-03-22T03:52:26;97136.00;;;6.33;76.66
20930;BME280;21895;47.072;15.132;2024-03-22T03:54:53;97137.00;;;6.17;75.55
20930;BME280;21895;47.072;15.132;2024-03-22T03:57:19;97137.00;;;6.01;75.78
20930;BME280;21895;47.072;15.132;2024-03-22T03:59:46;97140.00;;;5.89;75.95
20930;BME280;21895;47.072;15.132;2024-03-22T04:02:13;97132.00;;;5.94;76.67
20930;BME280;21895;47.072;15.132;2024-03-22T04:04:39;97132.00;;;5.91;76.29
20930;BME280;21895;47.072;15.132;2024-03-22T04:07:06;97129.00;;;5.81;77.23
20930;BME280;21895;47.072;15.132;2024-03-22T04:09:33;97136.00;;;5.77;77.23
20930;BME280;21895;47.072;15.132;2024-03-22T04:12:00;97132.00;;;5.61;76.96
20930;BME280;21895;47.072;15.132;2024-03-22T04:14:27;97134.00;;;5.71;77.08
20930;BME280;21895;47.072;15.132;2024-03-22T04:16:53;97128.00;;;5.57;77.10
20930;BME280;21895;47.072;15.132;2024-03-22T04:19:22;97133.00;;;5.47;76.81
20930;BME280;21895;47.072;15.132;2024-03-22T04:21:49;97131.00;;;5.21;75.75
20930;BME280;21895;47.072;15.132;2024-03-22T04:24:16;97128.00;;;5.00;77.19
20930;BME280;21895;47.072;15.132;2024-03-22T04:26:43;97125.00;;;5.23;78.11
20930;BME280;21895;47.072;15.132;2024-03-22T04:29:09;97134.00;;;5.10;78.32
20930;BME280;21895;47.072;15.132;2024-03-22T04:31:36;97128.00;;;5.26;78.97
20930;BME280;21895;47.072;15.132;2024-03-22T04:34:03;97131.00;;;5.49;80.14
20930;BME280;21895;47.072;15.132;2024-03-22T04:36:31;97130.00;;;5.52;79.57
20930;BME280;21895;47.072;15.132;2024-03-22T04:39:00;97127.00;;;5.59;79.41
20930;BME280;21895;47.072;15.132;2024-03-22T04:41:26;97133.00;;;5.62;76.79
20930;BME280;21895;47.072;15.132;2024-03-22T04:43:53;97136.00;;;5.34;77.41
20930;BME280;21895;47.072;15.132;2024-03-22T04:46:19;97140.00;;;5.27;76.92
20930;BME280;21895;47.072;15.132;2024-03-22T04:48:46;97146.00;;;5.14;77.03
20930;BME280;21895;47.072;15.132;2024-03-22T04:51:13;97143.00;;;5.12;77.32
20930;BME280;21895;47.072;15.132;2024-03-22T04:53:39;97143.00;;;5.09;77.71
20930;BME280;21895;47.072;15.132;2024-03-22T04:56:06;97145.00;;;5.13;77.18
20930;BME280;21895;47.072;15.132;2024-03-22T04:58:33;97145.00;;;4.99;77.38
20930;BME280;21895;47.072;15.132;2024-03-22T05:01:00;97145.00;;;5.03;77.14
20930;BME280;21895;47.072;15.132;2024-03-22T05:03:27;97151.00;;;4.96;76.62
20930;BME280;21895;47.072;15.132;2024-03-22T05:05:53;97144.00;;;4.90;76.94
20930;BME280;21895;47.072;15.132;2024-03-22T05:08:20;97149.00;;;4.95;77.66
20930;BME280;21895;47.072;15.132;2024-03-22T05:10:47;97151.00;;;4.94;77.57
20930;BME280;21895;47.072;15.132;2024-03-22T05:13:14;97155.00;;;4.92;76.81
20930;BME280;21895;47.072;15.132;2024-03-22T05:15:41;97151.00;;;4.96;77.33
20930;BME280;21895;47.072;15.132;2024-03-22T05:18:08;97144.00;;;4.86;77.42
20930;BME280;21895;47.072;15.132;2024-03-22T05:20:35;97150.00;;;4.85;76.51
20930;BME280;21895;47.072;15.132;2024-03-22T05:23:01;97143.00;;;4.84;77.31
20930;BME280;21895;47.072;15.132;2024-03-22T05:25:28;97145.00;;;5.07;76.90
20930;BME280;21895;47.072;15.132;2024-03-22T05:27:55;97145.00;;;5.16;77.44
20930;BME280;21895;47.072;15.132;2024-03-22T05:30:22;97144.00;;;5.00;76.25
20930;BME280;21895;47.072;15.132;2024-03-22T05:32:48;97147.00;;;4.98;76.15
20930;BME280;21895;47.072;15.132;2024-03-22T05:35:16;97143.00;;;5.01;76.40
20930;BME280;21895;47.072;15.132;2024-03-22T05:37:43;97142.00;;;5.15;76.63
20930;BME280;21895;47.072;15.132;2024-03-22T05:40:10;97144.00;;;5.18;76.82
20930;BME280;21895;47.072;15.132;2024-03-22T05:42:37;97143.00;;;5.39;76.55
20930;BME280;21895;47.072;15.132;2024-03-22T05:45:04;97141.00;;;5.46;77.24
20930;BME280;21895;47.072;15.132;2024-03-22T05:47:31;97143.00;;;5.63;76.74
20930;BME280;21895;47.072;15.132;2024-03-22T05:50:05;97142.00;;;5.61;76.34
20930;BME280;21895;47.072;15.132;2024-03-22T05:52:34;97136.00;;;5.69;76.40
20930;BME280;21895;47.072;15.132;2024-03-22T05:55:01;97134.00;;;5.69;76.63
20930;BME280;21895;47.072;15.132;2024-03-22T05:57:27;97142.00;;;5.95;77.10
20930;BME280;21895;47.072;15.132;2024-03-22T05:59:57;97130.00;;;6.21;76.86
20930;BME280;21895;47.072;15.132;2024-03-22T06:02:24;97136.00;;;6.37;76.97
20930;BME280;21895;47.072;15.132;2024-03-22T06:04:50;97130.00;;;6.61;76.46
20930;BME280;21895;47.072;15.132;2024-03-22T06:07:17;97132.00;;;6.73;75.92
20930;BME280;21895;47.072;15.132;2024-03-22T06:09:44;97130.00;;;7.28;73.22
20930;BME280;21895;47.072;15.132;2024-03-22T06:12:13;97122.00;;;7.48;72.40
20930;BME280;21895;47.072;15.132;2024-03-22T06:14:43;97130.00;;;7.34;72.77
20930;BME280;21895;47.072;15.132;2024-03-22T06:17:10;97132.00;;;7.43;72.92
20930;BME280;21895;47.072;15.132;2024-03-22T06:19:37;97124.00;;;7.58;73.05
20930;BME280;21895;47.072;15.132;2024-03-22T06:22:04;97124.00;;;7.71;72.80
20930;BME280;21895;47.072;15.132;2024-03-22T06:24:32;97126.00;;;7.80;72.90
20930;BME280;21895;47.072;15.132;2024-03-22T06:26:59;97116.00;;;7.91;72.62
20930;BME280;21895;47.072;15.132;2024-03-22T06:29:26;97120.00;;;8.23;71.03
20930;BME280;21895;47.072;15.132;2024-03-22T06:31:53;97119.00;;;8.24;70.75
20930;BME280;21895;47.072;15.132;2024-03-22T06:34:20;97112.00;;;8.40;70.96
20930;BME280;21895;47.072;15.132;2024-03-22T06:36:46;97106.00;;;8.84;70.34
20930;BME280;21895;47.072;15.132;2024-03-22T06:39:13;97111.00;;;8.92;71.40
20930;BME280;21895;47.072;15.132;2024-03-22T06:41:40;97112.00;;;9.05;70.95
20930;BME280;21895;47.072;15.132;2024-03-22T06:44:07;97110.00;;;9.26;70.40
20930;BME280;21895;47.072;15.132;2024-03-22T06:46:35;97110.00;;;9.58;69.42
20930;BME280;21895;47.072;15.132;2024-03-22T06:49:02;97110.00;;;9.78;68.37
20930;BME280;21895;47.072;15.132;2024-03-22T06:51:28;97108.00;;;10.02;66.48
20930;BME280;21895;47.072;15.132;2024-03-22T06:53:55;97098.00;;;10.56;64.82
20930;BME280;21895;47.072;15.132;2024-03-22T06:56:21;97087.00;;;10.74;63.54
20930;BME280;21895;47.072;15.132;2024-03-22T06:58:48;97095.00;;;10.74;63.98
20930;BME280;21895;47.072;15.132;2024-03-22T07:01:15;97093.00;;;10.94;63.24
20930;BME280;21895;47.072;15.132;2024-03-22T07:03:42;97085.00;;;11.19;64.22
20930;BME280;21895;47.072;15.132;2024-03-22T07:06:11;97091.00;;;11.45;63.00
20930;BME280;21895;47.072;15.132;2024-03-22T07:08:38;97092.00;;;11.69;62.70
20930;BME280;21895;47.072;15.132;2024-03-22T07:11:07;97099.00;;;12.02;62.69
20930;BME280;21895;47.072;15.132;2024-03-22T07:13:35;97092.00;;;12.00;63.68
20930;BME280;21895;47.072;15.132;2024-03-22T07:16:03;97087.00;;;12.29;62.08
20930;BME280;21895;47.072;15.132;2024-03-22T07:18:29;97087.00;;;12.66;60.86
20930;BME280;21895;47.072;15.132;2024-03-22T07:20:56;97089.00;;;13.04;61.03
20930;BME280;21895;47.072;15.132;2024-03-22T07:23:24;97103.00;;;13.18;58.00
20930;BME280;21895;47.072;15.132;2024-03-22T07:25:50;97091.00;;;13.41;56.70
20930;BME280;21895;47.072;15.132;2024-03-22T07:28:17;97086.00;;;13.44;57.19
20930;BME280;21895;47.072;15.132;2024-03-22T07:30:43;97087.00;;;13.69;57.45
20930;BME280;21895;47.072;15.132;2024-03-22T07:33:11;97087.00;;;13.85;57.07
20930;BME280;21895;47.072;15.132;2024-03-22T07:35:43;97085.00;;;14.18;57.16
20930;BME280;21895;47.072;15.132;2024-03-22T07:38:10;97075.00;;;14.38;56.21
20930;BME280;21895;47.072;15.132;2024-03-22T07:40:37;97086.00;;;14.82;54.47
20930;BME280;21895;47.072;15.132;2024-03-22T07:43:04;97087.00;;;15.20;52.84
20930;BME280;21895;47.072;15.132;2024-03-22T07:45:36;97080.00;;;15.38;51.87
20930;BME280;21895;47.072;15.132;2024-03-22T07:48:04;97074.00;;;15.73;49.80
20930;BME280;21895;47.072;15.132;2024-03-22T07:50:30;97072.00;;;15.77;48.66
20930;BME280;21895;47.072;15.132;2024-03-22T07:52:57;97078.00;;;15.90;48.14
20930;BME280;21895;47.072;15.132;2024-03-22T07:55:24;97069.00;;;16.10;47.83
20930;BME280;21895;47.072;15.132;2024-03-22T07:57:51;97069.00;;;16.17;45.89
20930;BME280;21895;47.072;15.132;2024-03-22T08:00:18;97078.00;;;16.19;45.35
20930;BME280;21895;47.072;15.132;2024-03-22T08:02:44;97069.00;;;16.24;45.04
20930;BME280;21895;47.072;15.132;2024-03-22T08:05:11;97068.00;;;16.52;44.41
20930;BME280;21895;47.072;15.132;2024-03-22T08:07:38;97064.00;;;16.66;42.73
20930;BME280;21895;47.072;15.132;2024-03-22T08:10:05;97058.00;;;16.89;42.63
20930;BME280;21895;47.072;15.132;2024-03-22T08:12:31;97057.00;;;17.18;37.97
20930;BME280;21895;47.072;15.132;2024-03-22T08:14:58;97054.00;;;17.29;34.51
20930;BME280;21895;47.072;15.132;2024-03-22T08:17:25;97055.00;;;17.27;35.72
20930;BME280;21895;47.072;15.132;2024-03-22T08:19:51;97052.00;;;16.99;33.40
20930;BME280;21895;47.072;15.132;2024-03-22T08:22:18;97054.00;;;16.87;32.67
20930;BME280;21895;47.072;15.132;2024-03-22T08:24:44;97059.00;;;16.99;32.98
20930;BME280;21895;47.072;15.132;2024-03-22T08:27:11;97057.00;;;16.84;32.72
20930;BME280;21895;47.072;15.132;2024-03-22T08:29:40;97051.00;;;16.90;33.26
20930;BME280;21895;47.072;15.132;2024-03-22T08:32:07;97051.00;;;17.19;34.27
20930;BME280;21895;47.072;15.132;2024-03-22T08:34:33;97055.00;;;17.27;31.90
20930;BME280;21895;47.072;15.132;2024-03-22T08:37:00;97045.00;;;17.24;31.19
20930;BME280;21895;47.072;15.132;2024-03-22T08:39:26;97046.00;;;17.29;33.33
20930;BME280;21895;47.072;15.132;2024-03-22T08:41:53;97054.00;;;17.33;32.65
20930;BME280;21895;47.072;15.132;2024-03-22T08:44:21;97040.00;;;17.61;33.20
20930;BME280;21895;47.072;15.132;2024-03-22T08:46:48;97035.00;;;17.97;32.63
20930;BME280;21895;47.072;15.132;2024-03-22T08:49:16;97035.00;;;18.18;32.33
20930;BME280;21895;47.072;15.132;2024-03-22T08:51:45;97036.00;;;18.20;30.60
20930;BME280;21895;47.072;15.132;2024-03-22T08:54:15;97035.00;;;17.70;31.45
20930;BME280;21895;47.072;15.132;2024-03-22T08:56:42;97025.00;;;17.67;31.68
20930;BME280;21895;47.072;15.132;2024-03-22T08:59:08;97023.00;;;18.14;32.82
20930;BME280;21895;47.072;15.132;2024-03-22T09:01:35;97017.00;;;18.45;31.35
20930;BME280;21895;47.072;15.132;2024-03-22T09:04:02;97015.00;;;18.47;29.53
20930;BME280;21895;47.072;15.132;2024-03-22T09:06:29;97019.00;;;18.50;29.64
20930;BME280;21895;47.072;15.132;2024-03-22T09:08:56;97025.00;;;18.76;29.58
20930;BME280;21895;47.072;15.132;2024-03-22T09:11:27;97024.00;;;18.57;29.13
20930;BME280;21895;47.072;15.132;2024-03-22T09:13:53;97019.00;;;18.57;28.58
20930;BME280;21895;47.072;15.132;2024-03-22T09:16:21;97015.00;;;18.85;30.08
20930;BME280;21895;47.072;15.132;2024-03-22T09:18:47;97002.00;;;19.04;30.24
20930;BME280;21895;47.072;15.132;2024-03-22T09:21:14;97000.00;;;18.87;28.98
20930;BME280;21895;47.072;15.132;2024-03-22T09:23:40;97000.00;;;18.86;29.45
20930;BME280;21895;47.072;15.132;2024-03-22T09:26:07;96992.00;;;18.74;29.03
20930;BME280;21895;47.072;15.132;2024-03-22T09:28:34;96985.00;;;18.90;29.17
20930;BME280;21895;47.072;15.132;2024-03-22T09:31:07;96983.00;;;19.29;29.33
20930;BME280;21895;47.072;15.132;2024-03-22T09:33:34;96967.00;;;19.61;28.89
20930;BME280;21895;47.072;15.132;2024-03-22T09:36:02;96978.00;;;19.81;28.19
20930;BME280;21895;47.072;15.132;2024-03-22T09:38:29;96978.00;;;20.05;26.93
20930;BME280;21895;47.072;15.132;2024-03-22T09:40:56;96986.00;;;19.59;26.32
20930;BME280;21895;47.072;15.132;2024-03-22T09:43:23;96969.00;;;19.55;27.11
20930;BME280;21895;47.072;15.132;2024-03-22T09:45:50;96974.00;;;19.31;27.24
20930;BME280;21895;47.072;15.132;2024-03-22T09:48:20;96974.00;;;19.00;27.41
20930;BME280;21895;47.072;15.132;2024-03-22T09:50:47;96976.00;;;19.16;27.50
20930;BME280;21895;47.072;15.132;2024-03-22T09:53:19;96971.00;;;18.95;27.38
20930;BME280;21895;47.072;15.132;2024-03-22T09:55:49;96969.00;;;19.23;27.42
20930;BME280;21895;47.072;15.132;2024-03-22T09:58:16;96960.00;;;19.56;28.67
20930;BME280;21895;47.072;15.132;2024-03-22T10:03:22;96953.00;;;20.12;28.16
20930;BME280;21895;47.072;15.132;2024-03-22T10:05:48;96959.00;;;20.55;28.00
20930;BME280;21895;47.072;15.132;2024-03-22T10:08:15;96948.00;;;20.55;26.92
20930;BME280;21895;47.072;15.132;2024-03-22T10:10:42;96955.00;;;20.73;27.55
20930;BME280;21895;47.072;15.132;2024-03-22T10:13:08;96957.00;;;20.70;26.22
20930;BME280;21895;47.072;15.132;2024-03-22T10:15:35;96954.00;;;20.12;26.87
20930;BME280;21895;47.072;15.132;2024-03-22T10:18:02;96946.00;;;20.12;27.28
20930;BME280;21895;47.072;15.132;2024-03-22T10:20:30;96950.00;;;20.42;26.56
20930;BME280;21895;47.072;15.132;2024-03-22T10:22:58;96942.00;;;20.49;28.11
20930;BME280;21895;47.072;15.132;2024-03-22T10:25:29;96937.00;;;20.58;27.87
20930;BME280;21895;47.072;15.132;2024-03-22T10:27:56;96936.00;;;20.54;27.04
20930;BME280;21895;47.072;15.132;2024-03-22T10:30:25;96942.00;;;20.85;28.82
20930;BME280;21895;47.072;15.132;2024-03-22T10:32:52;96931.00;;;20.80;27.51
20930;BME280;21895;47.072;15.132;2024-03-22T10:35:18;96929.00;;;21.03;28.65
20930;BME280;21895;47.072;15.132;2024-03-22T10:37:45;96919.00;;;20.93;26.18
20930;BME280;21895;47.072;15.132;2024-03-22T10:40:17;96917.00;;;20.56;26.53
20930;BME280;21895;47.072;15.132;2024-03-22T10:42:44;96909.00;;;20.66;26.44
20930;BME280;21895;47.072;15.132;2024-03-22T10:45:12;96907.00;;;20.95;27.54
20930;BME280;21895;47.072;15.132;2024-03-22T10:47:39;96916.00;;;21.08;26.25
20930;BME280;21895;47.072;15.132;2024-03-22T10:50:11;96916.00;;;20.79;26.78
20930;BME280;21895;47.072;15.132;2024-03-22T10:52:48;96916.00;;;20.72;25.71
20930;BME280;21895;47.072;15.132;2024-03-22T10:55:32;96905.00;;;21.03;26.72
20930;BME280;21895;47.072;15.132;2024-03-22T10:57:59;96901.00;;;20.83;26.63
20930;BME280;21895;47.072;15.132;2024-03-22T11:00:34;96896.00;;;20.56;27.26
20930;BME280;21895;47.072;15.132;2024-03-22T11:03:04;96889.00;;;20.62;26.80
20930;BME280;21895;47.072;15.132;2024-03-22T11:05:31;96886.00;;;21.08;26.85
20930;BME280;21895;47.072;15.132;2024-03-22T11:08:05;96883.00;;;21.50;25.96
20930;BME280;21895;47.072;15.132;2024-03-22T11:10:35;96884.00;;;21.60;25.87
20930;BME280;21895;47.072;15.132;2024-03-22T11:13:04;96881.00;;;22.04;26.28
20930;BME280;21895;47.072;15.132;2024-03-22T11:15:31;96886.00;;;21.59;25.27
20930;BME280;21895;47.072;15.132;2024-03-22T11:17:58;96869.00;;;21.20;26.25
20930;BME280;21895;47.072;15.132;2024-03-22T11:20:28;96874.00;;;21.52;28.04
20930;BME280;21895;47.072;15.132;2024-03-22T11:22:56;96873.00;;;21.10;26.19
20930;BME280;21895;47.072;15.132;2024-03-22T11:25:23;96867.00;;;21.10;25.98
20930;BME280;21895;47.072;15.132;2024-03-22T11:27:49;96865.00;;;21.46;25.20
20930;BME280;21895;47.072;15.132;2024-03-22T11:30:16;96854.00;;;21.73;25.58
20930;BME280;21895;47.072;15.132;2024-03-22T11:32:43;96854.00;;;22.18;25.12
20930;BME280;21895;47.072;15.132;2024-03-22T11:35:14;96853.00;;;22.28;24.32
20930;BME280;21895;47.072;15.132;2024-03-22T11:37:42;96837.00;;;22.31;24.33
20930;BME280;21895;47.072;15.132;2024-03-22T11:40:12;96831.00;;;22.37;26.18
20930;BME280;21895;47.072;15.132;2024-03-22T11:42:42;96833.00;;;22.41;24.71
20930;BME280;21895;47.072;15.132;2024-03-22T11:45:11;96830.00;;;22.13;27.03
20930;BME280;21895;47.072;15.132;2024-03-22T11:47:40;96824.00;;;22.22;25.40
20930;BME280;21895;47.072;15.132;2024-03-22T11:50:07;96825.00;;;22.34;27.22
20930;BME280;21895;47.072;15.132;2024-03-22T11:52:35;96823.00;;;21.90;25.50
20930;BME280;21895;47.072;15.132;2024-03-22T11:55:04;96818.00;;;21.90;26.42
20930;BME280;21895;47.072;15.132;2024-03-22T11:57:31;96816.00;;;21.86;26.03
20930;BME280;21895;47.072;15.132;2024-03-22T12:00:03;96811.00;;;22.01;26.28
20930;BME280;21895;47.072;15.132;2024-03-22T12:02:50;96810.00;;;22.26;27.10
20930;BME280;21895;47.072;15.132;2024-03-22T12:05:17;96817.00;;;22.09;28.18
20930;BME280;21895;47.072;15.132;2024-03-22T12:07:44;96802.00;;;21.52;29.06
20930;BME280;21895;47.072;15.132;2024-03-22T12:10:11;96803.00;;;21.57;30.09
20930;BME280;21895;47.072;15.132;2024-03-22T12:12:38;96793.00;;;21.62;29.57
20930;BME280;21895;47.072;15.132;2024-03-22T12:15:05;96789.00;;;21.54;30.82
20930;BME280;21895;47.072;15.132;2024-03-22T12:17:32;96791.00;;;21.32;30.79
20930;BME280;21895;47.072;15.132;2024-03-22T12:19:59;96790.00;;;21.43;30.30
20930;BME280;21895;47.072;15.132;2024-03-22T12:22:26;96788.00;;;21.44;30.40
20930;BME280;21895;47.072;15.132;2024-03-22T12:24:52;96787.00;;;21.14;30.82
20930;BME280;21895;47.072;15.132;2024-03-22T12:27:19;96779.00;;;20.92;31.27
20930;BME280;21895;47.072;15.132;2024-03-22T12:29:48;96781.00;;;20.88;30.72
20930;BME280;21895;47.072;15.132;2024-03-22T12:32:15;96773.00;;;20.84;30.87
20930;BME280;21895;47.072;15.132;2024-03-22T12:34:41;96778.00;;;20.93;31.45
20930;BME280;21895;47.072;15.132;2024-03-22T12:37:08;96775.00;;;20.96;31.03
20930;BME280;21895;47.072;15.132;2024-03-22T12:39:35;96762.00;;;21.15;30.80
20930;BME280;21895;47.072;15.132;2024-03-22T12:42:02;96773.00;;;20.84;31.26
20930;BME280;21895;47.072;15.132;2024-03-22T12:44:28;96767.00;;;20.57;31.58
20930;BME280;21895;47.072;15.132;2024-03-22T12:46:55;96760.00;;;20.51;31.54
20930;BME280;21895;47.072;15.132;2024-03-22T12:49:22;96753.00;;;20.50;32.03
20930;BME280;21895;47.072;15.132;2024-03-22T12:51:49;96756.00;;;20.50;32.41
20930;BME280;21895;47.072;15.132;2024-03-22T12:54:15;96749.00;;;20.59;31.61
20930;BME280;21895;47.072;15.132;2024-03-22T12:56:45;96741.00;;;20.60;31.44
20930;BME280;21895;47.072;15.132;2024-03-22T12:59:12;96739.00;;;20.54;31.81